sensor_id;sensor_type;location;lat;lon;timestamp;pressure;altitude;pressure_sealevel;temperature;humidity
69411;BME280;56604;48.652;9.194;2022-08-19T00:01:27;95917.72;;;20.82;65.17
69411;BME280;56604;48.652;9.194;2022-08-19T00:03:54;95921.53;;;20.73;66.22
69411;BME280;56604;48.652;9.194;2022-08-19T00:06:19;95917.31;;;20.63;66.80
69411;BME280;56604;48.652;9.194;2022-08-19T00:08:45;95925.03;;;20.64;67.16
69411;BME280;56604;48.652;9.194;2022-08-19T00:11:10;95922.66;;;20.63;67.75
69411;BME280;56604;48.652;9.194;2022-08-19T00:13:36;95933.03;;;20.64;67.84
69411;BME280;56604;48.652;9.194;2022-08-19T00:16:04;95926.97;;;20.55;68.92
69411;BME280;56604;48.652;9.194;2022-08-19T00:18:31;95924.59;;;20.45;69.19
69411;BME280;56604;48.652;9.194;2022-08-19T00:20:56;95925.09;;;20.38;69.54
69411;BME280;56604;48.652;9.194;2022-08-19T00:23:22;95923.69;;;20.41;69.42
69411;BME280;56604;48.652;9.194;2022-08-19T00:25:47;95917.78;;;20.27;69.89
69411;BME280;56604;48.652;9.194;2022-08-19T00:28:13;95920.88;;;20.29;70.26
69411;BME280;56604;48.652;9.194;2022-08-19T00:30:39;95910.72;;;20.13;70.34
69411;BME280;56604;48.652;9.194;2022-08-19T00:33:05;95900.84;;;20.05;71.50
69411;BME280;56604;48.652;9.194;2022-08-19T00:35:30;95891.28;;;20.04;71.30
69411;BME280;56604;48.652;9.194;2022-08-19T00:37:56;95890.69;;;19.98;71.73
69411;BME280;56604;48.652;9.194;2022-08-19T00:40:21;95897.72;;;20.03;71.94
69411;BME280;56604;48.652;9.194;2022-08-19T00:42:47;95893.19;;;19.95;71.86
69411;BME280;56604;48.652;9.194;2022-08-19T00:45:21;95893.38;;;19.90;72.16
69411;BME280;56604;48.652;9.194;2022-08-19T00:47:47;95894.91;;;19.91;72.28
69411;BME280;56604;48.652;9.194;2022-08-19T00:50:15;95904.03;;;19.90;71.74
69411;BME280;56604;48.652;9.194;2022-08-19T00:52:45;95913.63;;;19.82;72.41
69411;BME280;56604;48.652;9.194;2022-08-19T00:55:21;95918.31;;;19.85;72.08
69411;BME280;56604;48.652;9.194;2022-08-19T00:57:51;95914.06;;;19.93;71.97
69411;BME280;56604;48.652;9.194;2022-08-19T01:00:20;95910.94;;;19.91;71.83
69411;BME280;56604;48.652;9.194;2022-08-19T01:02:46;95914.72;;;19.90;72.02
69411;BME280;56604;48.652;9.194;2022-08-19T01:05:15;95919.72;;;19.83;71.97
69411;BME280;56604;48.652;9.194;2022-08-19T01:07:43;95915.97;;;19.84;72.07
69411;BME280;56604;48.652;9.194;2022-08-19T01:10:12;95911.88;;;19.86;72.26
69411;BME280;56604;48.652;9.194;2022-08-19T01:12:38;95911.06;;;19.94;72.67
69411;BME280;56604;48.652;9.194;2022-08-19T01:15:07;95906.88;;;19.85;73.17
69411;BME280;56604;48.652;9.194;2022-08-19T01:17:34;95904.69;;;19.78;73.54
69411;BME280;56604;48.652;9.194;2022-08-19T01:20:03;95903.44;;;19.75;73.74
69411;BME280;56604;48.652;9.194;2022-08-19T01:22:48;95916.78;;;19.75;74.24
69411;BME280;56604;48.652;9.194;2022-08-19T01:25:17;95906.25;;;19.70;74.49
69411;BME280;56604;48.652;9.194;2022-08-19T01:27:46;95898.88;;;19.76;74.25
69411;BME280;56604;48.652;9.194;2022-08-19T01:30:20;95898.41;;;19.65;74.84
69411;BME280;56604;48.652;9.194;2022-08-19T01:32:48;95895.22;;;19.63;74.83
69411;BME280;56604;48.652;9.194;2022-08-19T01:35:14;95907.78;;;19.54;74.99
69411;BME280;56604;48.652;9.194;2022-08-19T01:37:50;95904.84;;;19.47;75.31
69411;BME280;56604;48.652;9.194;2022-08-19T01:40:18;95896.66;;;19.43;75.98
69411;BME280;56604;48.652;9.194;2022-08-19T01:42:46;95899.19;;;19.40;76.40
69411;BME280;56604;48.652;9.194;2022-08-19T01:45:13;95894.78;;;19.35;76.32
69411;BME280;56604;48.652;9.194;2022-08-19T01:47:39;95890.88;;;19.41;75.93
69411;BME280;56604;48.652;9.194;2022-08-19T01:50:06;95894.63;;;19.31;75.84
69411;BME280;56604;48.652;9.194;2022-08-19T01:52:35;95896.66;;;19.35;76.00
69411;BME280;56604;48.652;9.194;2022-08-19T01:55:01;95897.75;;;19.33;76.00
69411;BME280;56604;48.652;9.194;2022-08-19T01:57:26;95901.34;;;19.29;75.86
69411;BME280;56604;48.652;9.194;2022-08-19T01:59:51;95902.94;;;19.30;75.85
69411;BME280;56604;48.652;9.194;2022-08-19T02:02:17;95893.97;;;19.17;76.23
69411;BME280;56604;48.652;9.194;2022-08-19T02:04:42;95898.25;;;19.27;75.72
69411;BME280;56604;48.652;9.194;2022-08-19T02:07:08;95897.13;;;19.19;76.00
69411;BME280;56604;48.652;9.194;2022-08-19T02:09:34;95892.44;;;19.16;75.93
69411;BME280;56604;48.652;9.194;2022-08-19T02:12:00;95903.22;;;19.11;76.31
69411;BME280;56604;48.652;9.194;2022-08-19T02:14:25;95903.09;;;19.16;76.00
69411;BME280;56604;48.652;9.194;2022-08-19T02:16:51;95893.06;;;19.22;75.87
69411;BME280;56604;48.652;9.194;2022-08-19T02:19:16;95904.03;;;19.20;75.98
69411;BME280;56604;48.652;9.194;2022-08-19T02:21:42;95906.38;;;19.13;76.50
69411;BME280;56604;48.652;9.194;2022-08-19T02:24:09;95897.28;;;19.14;76.31
69411;BME280;56604;48.652;9.194;2022-08-19T02:26:34;95902.94;;;19.13;76.44
69411;BME280;56604;48.652;9.194;2022-08-19T02:29:00;95910.59;;;19.14;76.69
69411;BME280;56604;48.652;9.194;2022-08-19T02:31:26;95904.50;;;19.22;76.51
69411;BME280;56604;48.652;9.194;2022-08-19T02:33:53;95895.88;;;19.08;76.80
69411;BME280;56604;48.652;9.194;2022-08-19T02:36:18;95894.75;;;19.00;76.48
69411;BME280;56604;48.652;9.194;2022-08-19T02:38:44;95890.69;;;19.03;76.30
69411;BME280;56604;48.652;9.194;2022-08-19T02:41:32;95886.91;;;19.04;75.72
69411;BME280;56604;48.652;9.194;2022-08-19T02:43:59;95884.88;;;19.01;76.10
69411;BME280;56604;48.652;9.194;2022-08-19T02:46:28;95874.53;;;19.08;75.33
69411;BME280;56604;48.652;9.194;2022-08-19T02:48:57;95880.66;;;19.00;75.76
69411;BME280;56604;48.652;9.194;2022-08-19T02:51:25;95879.72;;;18.96;75.18
69411;BME280;56604;48.652;9.194;2022-08-19T02:53:52;95878.88;;;18.86;75.77
69411;BME280;56604;48.652;9.194;2022-08-19T02:56:18;95880.63;;;18.82;76.04
69411;BME280;56604;48.652;9.194;2022-08-19T02:58:44;95883.78;;;18.93;75.27
69411;BME280;56604;48.652;9.194;2022-08-19T03:01:10;95882.53;;;18.91;75.21
69411;BME280;56604;48.652;9.194;2022-08-19T03:03:37;95884.72;;;18.97;75.45
69411;BME280;56604;48.652;9.194;2022-08-19T03:06:09;95888.75;;;18.86;75.58
69411;BME280;56604;48.652;9.194;2022-08-19T03:08:36;95893.19;;;18.91;75.15
69411;BME280;56604;48.652;9.194;2022-08-19T03:11:02;95900.53;;;18.94;75.61
69411;BME280;56604;48.652;9.194;2022-08-19T03:13:28;95904.13;;;18.98;75.35
69411;BME280;56604;48.652;9.194;2022-08-19T03:15:53;95901.66;;;18.93;75.52
69411;BME280;56604;48.652;9.194;2022-08-19T03:18:19;95903.22;;;18.94;75.17
69411;BME280;56604;48.652;9.194;2022-08-19T03:20:50;95902.72;;;18.92;75.73
69411;BME280;56604;48.652;9.194;2022-08-19T03:23:16;95898.50;;;18.99;75.50
69411;BME280;56604;48.652;9.194;2022-08-19T03:25:46;95899.94;;;19.05;75.67
69411;BME280;56604;48.652;9.194;2022-08-19T03:28:13;95898.19;;;19.01;75.14
69411;BME280;56604;48.652;9.194;2022-08-19T03:30:40;95898.97;;;18.93;75.63
69411;BME280;56604;48.652;9.194;2022-08-19T03:33:10;95897.25;;;18.88;75.94
69411;BME280;56604;48.652;9.194;2022-08-19T03:35:38;95900.53;;;18.94;75.68
69411;BME280;56604;48.652;9.194;2022-08-19T03:38:05;95903.69;;;18.96;75.41
69411;BME280;56604;48.652;9.194;2022-08-19T03:40:32;95905.72;;;18.90;75.76
69411;BME280;56604;48.652;9.194;2022-08-19T03:42:59;95901.44;;;18.80;76.08
69411;BME280;56604;48.652;9.194;2022-08-19T03:45:24;95903.63;;;18.78;75.60
69411;BME280;56604;48.652;9.194;2022-08-19T03:47:50;95896.56;;;18.74;75.59
69411;BME280;56604;48.652;9.194;2022-08-19T03:50:15;95897.50;;;18.78;75.06
69411;BME280;56604;48.652;9.194;2022-08-19T03:52:41;95906.16;;;18.83;75.24
69411;BME280;56604;48.652;9.194;2022-08-19T03:55:07;95905.53;;;18.86;74.83
69411;BME280;56604;48.652;9.194;2022-08-19T03:57:33;95908.03;;;18.83;75.29
69411;BME280;56604;48.652;9.194;2022-08-19T03:59:59;95908.66;;;18.80;75.45
69411;BME280;56604;48.652;9.194;2022-08-19T04:02:25;95910.41;;;18.84;75.26
69411;BME280;56604;48.652;9.194;2022-08-19T04:04:53;95912.75;;;18.86;75.19
69411;BME280;56604;48.652;9.194;2022-08-19T04:07:19;95910.84;;;18.86;74.76
69411;BME280;56604;48.652;9.194;2022-08-19T04:09:47;95911.47;;;18.83;75.04
69411;BME280;56604;48.652;9.194;2022-08-19T04:12:12;95908.81;;;18.83;75.10
69411;BME280;56604;48.652;9.194;2022-08-19T04:14:38;95902.72;;;18.92;75.05
69411;BME280;56604;48.652;9.194;2022-08-19T04:17:04;95902.25;;;18.90;75.46
69411;BME280;56604;48.652;9.194;2022-08-19T04:19:31;95906.16;;;18.83;74.92
69411;BME280;56604;48.652;9.194;2022-08-19T04:21:57;95906.78;;;18.80;74.98
69411;BME280;56604;48.652;9.194;2022-08-19T04:24:23;95900.97;;;18.78;75.03
69411;BME280;56604;48.652;9.194;2022-08-19T04:26:49;95897.09;;;18.84;74.89
69411;BME280;56604;48.652;9.194;2022-08-19T04:29:18;95900.38;;;18.81;74.82
69411;BME280;56604;48.652;9.194;2022-08-19T04:31:44;95902.41;;;18.84;74.96
69411;BME280;56604;48.652;9.194;2022-08-19T04:34:12;95905.22;;;18.79;75.27
69411;BME280;56604;48.652;9.194;2022-08-19T04:36:40;95903.34;;;18.88;74.60
69411;BME280;56604;48.652;9.194;2022-08-19T04:39:13;95901.94;;;18.82;74.87
69411;BME280;56604;48.652;9.194;2022-08-19T04:41:39;95897.38;;;18.83;74.70
69411;BME280;56604;48.652;9.194;2022-08-19T04:44:24;95903.03;;;18.81;74.75
69411;BME280;56604;48.652;9.194;2022-08-19T04:46:50;95901.09;;;18.73;74.81
69411;BME280;56604;48.652;9.194;2022-08-19T04:49:20;95896.84;;;18.72;75.05
69411;BME280;56604;48.652;9.194;2022-08-19T04:51:47;95902.84;;;18.78;74.62
69411;BME280;56604;48.652;9.194;2022-08-19T04:54:13;95899.75;;;18.84;73.99
69411;BME280;56604;48.652;9.194;2022-08-19T04:56:40;95904.13;;;18.89;73.90
69411;BME280;56604;48.652;9.194;2022-08-19T04:59:06;95904.59;;;18.91;73.91
69411;BME280;56604;48.652;9.194;2022-08-19T05:01:32;95904.97;;;19.07;73.44
69411;BME280;56604;48.652;9.194;2022-08-19T05:04:00;95914.66;;;19.03;73.40
69411;BME280;56604;48.652;9.194;2022-08-19T05:06:30;95919.38;;;19.06;73.20
69411;BME280;56604;48.652;9.194;2022-08-19T05:08:58;95930.03;;;19.06;73.32
69411;BME280;56604;48.652;9.194;2022-08-19T05:11:29;95933.44;;;18.98;73.49
69411;BME280;56604;48.652;9.194;2022-08-19T05:13:56;95947.59;;;19.07;73.08
69411;BME280;56604;48.652;9.194;2022-08-19T05:16:22;95951.69;;;19.13;72.77
69411;BME280;56604;48.652;9.194;2022-08-19T05:18:49;95957.00;;;19.13;72.86
69411;BME280;56604;48.652;9.194;2022-08-19T05:21:34;95963.59;;;19.07;73.06
69411;BME280;56604;48.652;9.194;2022-08-19T05:24:19;95971.25;;;19.08;73.10
69411;BME280;56604;48.652;9.194;2022-08-19T05:26:48;95979.56;;;19.07;72.79
69411;BME280;56604;48.652;9.194;2022-08-19T05:29:16;95988.16;;;19.04;73.22
69411;BME280;56604;48.652;9.194;2022-08-19T05:31:43;95999.03;;;19.16;72.84
69411;BME280;56604;48.652;9.194;2022-08-19T05:34:10;95999.81;;;19.17;72.91
69411;BME280;56604;48.652;9.194;2022-08-19T05:36:41;96004.34;;;19.16;73.07
69411;BME280;56604;48.652;9.194;2022-08-19T05:39:11;96007.34;;;19.23;72.25
69411;BME280;56604;48.652;9.194;2022-08-19T05:41:41;96000.31;;;19.27;72.65
69411;BME280;56604;48.652;9.194;2022-08-19T05:44:07;95989.03;;;19.30;72.43
69411;BME280;56604;48.652;9.194;2022-08-19T05:46:35;95996.91;;;19.44;71.83
69411;BME280;56604;48.652;9.194;2022-08-19T05:49:03;95998.41;;;19.19;72.63
69411;BME280;56604;48.652;9.194;2022-08-19T05:51:30;95992.75;;;19.29;72.07
69411;BME280;56604;48.652;9.194;2022-08-19T05:53:55;96000.63;;;19.35;72.14
69411;BME280;56604;48.652;9.194;2022-08-19T05:56:21;95997.94;;;19.26;72.29
69411;BME280;56604;48.652;9.194;2022-08-19T05:58:46;96000.31;;;19.27;72.02
69411;BME280;56604;48.652;9.194;2022-08-19T06:01:15;95995.59;;;19.24;72.51
69411;BME280;56604;48.652;9.194;2022-08-19T06:03:41;96001.88;;;19.28;72.21
69411;BME280;56604;48.652;9.194;2022-08-19T06:06:08;95999.53;;;19.27;71.94
69411;BME280;56604;48.652;9.194;2022-08-19T06:08:35;95998.59;;;19.40;71.95
69411;BME280;56604;48.652;9.194;2022-08-19T06:14:02;96000.19;;;19.41;72.44
69411;BME280;56604;48.652;9.194;2022-08-19T06:16:28;96001.28;;;19.49;72.56
69411;BME280;56604;48.652;9.194;2022-08-19T06:18:59;95997.53;;;19.50;73.01
69411;BME280;56604;48.652;9.194;2022-08-19T06:21:26;96002.38;;;19.48;72.91
69411;BME280;56604;48.652;9.194;2022-08-19T06:23:52;96001.13;;;19.45;72.95
69411;BME280;56604;48.652;9.194;2022-08-19T06:26:19;95999.72;;;19.48;74.03
69411;BME280;56604;48.652;9.194;2022-08-19T06:28:45;96007.06;;;19.42;73.86
69411;BME280;56604;48.652;9.194;2022-08-19T06:31:16;96003.50;;;19.47;73.52
69411;BME280;56604;48.652;9.194;2022-08-19T06:33:45;96007.53;;;19.36;74.26
69411;BME280;56604;48.652;9.194;2022-08-19T06:36:32;96008.94;;;19.33;74.31
69411;BME280;56604;48.652;9.194;2022-08-19T06:39:00;96001.41;;;19.35;74.46
69411;BME280;56604;48.652;9.194;2022-08-19T06:41:27;96004.72;;;19.41;74.45
69411;BME280;56604;48.652;9.194;2022-08-19T06:43:54;96000.00;;;19.46;74.00
69411;BME280;56604;48.652;9.194;2022-08-19T06:46:19;96005.19;;;19.43;75.01
69411;BME280;56604;48.652;9.194;2022-08-19T06:48:46;96006.94;;;19.56;74.38
69411;BME280;56604;48.652;9.194;2022-08-19T06:51:14;96009.31;;;19.66;74.07
69411;BME280;56604;48.652;9.194;2022-08-19T06:53:41;96010.88;;;19.59;74.72
69411;BME280;56604;48.652;9.194;2022-08-19T06:56:10;96013.34;;;19.46;74.77
69411;BME280;56604;48.652;9.194;2022-08-19T06:58:36;96011.00;;;19.45;75.16
69411;BME280;56604;48.652;9.194;2022-08-19T07:01:02;96020.72;;;19.41;75.12
69411;BME280;56604;48.652;9.194;2022-08-19T07:03:31;96024.47;;;19.40;74.80
69411;BME280;56604;48.652;9.194;2022-08-19T07:06:02;96021.81;;;19.40;74.63
69411;BME280;56604;48.652;9.194;2022-08-19T07:08:27;96011.78;;;19.37;74.47
69411;BME280;56604;48.652;9.194;2022-08-19T07:10:53;96015.69;;;19.30;74.65
69411;BME280;56604;48.652;9.194;2022-08-19T07:13:18;96010.00;;;19.23;74.85
69411;BME280;56604;48.652;9.194;2022-08-19T07:15:44;96013.00;;;19.22;74.60
69411;BME280;56604;48.652;9.194;2022-08-19T07:18:11;96020.84;;;19.18;74.67
69411;BME280;56604;48.652;9.194;2022-08-19T07:20:36;96022.25;;;19.24;74.74
69411;BME280;56604;48.652;9.194;2022-08-19T07:23:04;96018.47;;;19.25;74.84
69411;BME280;56604;48.652;9.194;2022-08-19T07:25:29;96025.22;;;19.23;75.24
69411;BME280;56604;48.652;9.194;2022-08-19T07:27:54;96025.22;;;19.23;74.89
69411;BME280;56604;48.652;9.194;2022-08-19T07:30:20;96032.16;;;19.32;75.11
69411;BME280;56604;48.652;9.194;2022-08-19T07:32:45;96022.09;;;19.29;74.81
69411;BME280;56604;48.652;9.194;2022-08-19T07:35:10;96030.72;;;19.26;75.16
69411;BME280;56604;48.652;9.194;2022-08-19T07:37:36;96029.44;;;19.24;75.16
69411;BME280;56604;48.652;9.194;2022-08-19T07:40:06;96023.06;;;19.42;75.04
69411;BME280;56604;48.652;9.194;2022-08-19T07:42:31;96026.66;;;19.38;75.17
69411;BME280;56604;48.652;9.194;2022-08-19T07:44:58;96031.06;;;19.33;75.01
69411;BME280;56604;48.652;9.194;2022-08-19T07:47:23;96028.53;;;19.28;75.19
69411;BME280;56604;48.652;9.194;2022-08-19T07:49:48;96027.41;;;19.29;75.68
69411;BME280;56604;48.652;9.194;2022-08-19T07:52:14;96025.88;;;19.37;76.06
69411;BME280;56604;48.652;9.194;2022-08-19T07:54:40;96031.09;;;19.51;76.57
69411;BME280;56604;48.652;9.194;2022-08-19T07:57:06;96028.22;;;19.21;77.19
69411;BME280;56604;48.652;9.194;2022-08-19T07:59:33;96032.56;;;19.17;77.87
69411;BME280;56604;48.652;9.194;2022-08-19T08:01:59;96027.81;;;18.97;78.14
69411;BME280;56604;48.652;9.194;2022-08-19T08:04:27;96030.75;;;18.95;79.15
69411;BME280;56604;48.652;9.194;2022-08-19T08:07:11;96038.47;;;18.97;78.86
69411;BME280;56604;48.652;9.194;2022-08-19T08:09:55;96028.63;;;19.06;79.54
69411;BME280;56604;48.652;9.194;2022-08-19T08:12:27;96039.41;;;19.01;78.97
69411;BME280;56604;48.652;9.194;2022-08-19T08:14:59;96041.41;;;18.95;80.57
69411;BME280;56604;48.652;9.194;2022-08-19T08:17:30;96043.63;;;18.93;80.42
69411;BME280;56604;48.652;9.194;2022-08-19T08:19:55;96038.59;;;18.92;80.86
69411;BME280;56604;48.652;9.194;2022-08-19T08:22:23;96051.69;;;18.79;80.92
69411;BME280;56604;48.652;9.194;2022-08-19T08:25:11;96049.69;;;18.85;80.93
69411;BME280;56604;48.652;9.194;2022-08-19T08:27:40;96043.47;;;18.67;80.75
69411;BME280;56604;48.652;9.194;2022-08-19T08:30:10;96049.69;;;18.62;81.54
69411;BME280;56604;48.652;9.194;2022-08-19T08:32:37;96037.03;;;18.68;81.87
69411;BME280;56604;48.652;9.194;2022-08-19T08:35:05;96040.56;;;18.77;81.57
69411;BME280;56604;48.652;9.194;2022-08-19T08:37:31;96034.00;;;18.83;81.34
69411;BME280;56604;48.652;9.194;2022-08-19T08:39:56;96030.75;;;18.95;81.39
69411;BME280;56604;48.652;9.194;2022-08-19T08:42:36;96037.69;;;18.96;81.36
69411;BME280;56604;48.652;9.194;2022-08-19T08:45:13;96039.25;;;18.97;81.28
69411;BME280;56604;48.652;9.194;2022-08-19T08:47:44;96043.38;;;19.12;80.82
69411;BME280;56604;48.652;9.194;2022-08-19T08:50:49;96042.75;;;19.15;81.01
69411;BME280;56604;48.652;9.194;2022-08-19T08:53:08;96046.66;;;19.09;80.04
69411;BME280;56604;48.652;9.194;2022-08-19T08:55:35;96044.47;;;19.11;79.92
69411;BME280;56604;48.652;9.194;2022-08-19T08:58:06;96049.34;;;19.18;80.47
69411;BME280;56604;48.652;9.194;2022-08-19T09:00:39;96056.06;;;19.15;79.62
69411;BME280;56604;48.652;9.194;2022-08-19T09:03:32;96051.03;;;19.05;80.64
69411;BME280;56604;48.652;9.194;2022-08-19T09:06:03;96054.31;;;19.02;81.28
69411;BME280;56604;48.652;9.194;2022-08-19T09:10:56;96063.09;;;19.02;81.00
69411;BME280;56604;48.652;9.194;2022-08-19T09:13:41;96055.66;;;18.91;81.08
69411;BME280;56604;48.652;9.194;2022-08-19T09:16:14;96064.31;;;18.96;80.98
69411;BME280;56604;48.652;9.194;2022-08-19T09:18:46;96064.47;;;19.00;80.89
69411;BME280;56604;48.652;9.194;2022-08-19T09:21:13;96060.28;;;19.07;80.46
69411;BME280;56604;48.652;9.194;2022-08-19T09:23:39;96067.53;;;19.16;80.78
69411;BME280;56604;48.652;9.194;2022-08-19T09:26:12;96066.63;;;19.29;79.97
69411;BME280;56604;48.652;9.194;2022-08-19T09:28:39;96065.16;;;19.14;80.94
69411;BME280;56604;48.652;9.194;2022-08-19T09:31:08;96061.75;;;19.22;80.35
69411;BME280;56604;48.652;9.194;2022-08-19T09:33:33;96069.16;;;19.34;79.91
69411;BME280;56604;48.652;9.194;2022-08-19T09:36:09;96061.28;;;19.29;80.30
69411;BME280;56604;48.652;9.194;2022-08-19T09:38:36;96072.53;;;19.17;80.11
69411;BME280;56604;48.652;9.194;2022-08-19T09:41:10;96070.22;;;19.24;80.17
69411;BME280;56604;48.652;9.194;2022-08-19T09:43:40;96067.41;;;19.29;79.78
69411;BME280;56604;48.652;9.194;2022-08-19T09:46:07;96071.66;;;19.30;79.51
69411;BME280;56604;48.652;9.194;2022-08-19T09:48:35;96070.56;;;19.31;79.62
69411;BME280;56604;48.652;9.194;2022-08-19T09:51:13;96070.91;;;19.39;80.08
69411;BME280;56604;48.652;9.194;2022-08-19T09:53:45;96072.31;;;19.36;80.19
69411;BME280;56604;48.652;9.194;2022-08-19T09:56:12;96076.66;;;19.32;80.31
69411;BME280;56604;48.652;9.194;2022-08-19T09:58:39;96074.66;;;19.38;80.01
69411;BME280;56604;48.652;9.194;2022-08-19T10:01:06;96074.94;;;19.27;80.27
69411;BME280;56604;48.652;9.194;2022-08-19T10:03:33;96074.31;;;19.30;80.29
69411;BME280;56604;48.652;9.194;2022-08-19T10:06:00;96081.28;;;19.49;79.58
69411;BME280;56604;48.652;9.194;2022-08-19T10:08:29;96072.81;;;19.47;80.52
69411;BME280;56604;48.652;9.194;2022-08-19T10:10:56;96077.53;;;19.50;80.28
69411;BME280;56604;48.652;9.194;2022-08-19T10:13:24;96080.03;;;19.55;79.90
69411;BME280;56604;48.652;9.194;2022-08-19T10:15:56;96084.75;;;19.58;80.67
69411;BME280;56604;48.652;9.194;2022-08-19T10:18:26;96086.19;;;19.64;80.72
69411;BME280;56604;48.652;9.194;2022-08-19T10:20:59;96087.63;;;19.70;80.15
69411;BME280;56604;48.652;9.194;2022-08-19T10:23:27;96083.44;;;19.87;79.86
69411;BME280;56604;48.652;9.194;2022-08-19T10:25:59;96083.25;;;19.74;80.40
69411;BME280;56604;48.652;9.194;2022-08-19T10:28:24;96085.59;;;19.67;80.74
69411;BME280;56604;48.652;9.194;2022-08-19T10:30:50;96087.31;;;19.81;80.73
69411;BME280;56604;48.652;9.194;2022-08-19T10:33:15;96076.66;;;19.81;80.55
69411;BME280;56604;48.652;9.194;2022-08-19T10:35:40;96076.50;;;19.94;80.79
69411;BME280;56604;48.652;9.194;2022-08-19T10:38:06;96081.84;;;20.03;80.71
69411;BME280;56604;48.652;9.194;2022-08-19T10:40:31;96076.84;;;20.10;80.57
69411;BME280;56604;48.652;9.194;2022-08-19T10:42:56;96079.03;;;20.26;80.02
69411;BME280;56604;48.652;9.194;2022-08-19T10:45:23;96070.56;;;20.32;79.81
69411;BME280;56604;48.652;9.194;2022-08-19T10:47:50;96074.16;;;20.62;79.12
69411;BME280;56604;48.652;9.194;2022-08-19T10:50:15;96069.75;;;20.75;78.75
69411;BME280;56604;48.652;9.194;2022-08-19T10:53:03;96065.66;;;20.78;78.93
69411;BME280;56604;48.652;9.194;2022-08-19T10:55:29;96068.06;;;21.00;77.90
69411;BME280;56604;48.652;9.194;2022-08-19T10:58:18;96071.44;;;20.80;77.17
69411;BME280;56604;48.652;9.194;2022-08-19T11:00:52;96069.13;;;20.70;77.60
69411;BME280;56604;48.652;9.194;2022-08-19T11:03:18;96063.59;;;20.75;78.39
69411;BME280;56604;48.652;9.194;2022-08-19T11:05:43;96069.34;;;20.94;77.98
69411;BME280;56604;48.652;9.194;2022-08-19T11:08:09;96061.91;;;21.08;77.64
69411;BME280;56604;48.652;9.194;2022-08-19T11:10:36;96064.72;;;21.21;77.51
69411;BME280;56604;48.652;9.194;2022-08-19T11:13:02;96059.03;;;21.22;77.00
69411;BME280;56604;48.652;9.194;2022-08-19T11:15:28;96066.81;;;21.45;77.64
69411;BME280;56604;48.652;9.194;2022-08-19T11:17:53;96057.78;;;21.20;77.67
69411;BME280;56604;48.652;9.194;2022-08-19T11:20:19;96069.28;;;21.11;77.57
69411;BME280;56604;48.652;9.194;2022-08-19T11:22:45;96064.00;;;20.94;78.26
69411;BME280;56604;48.652;9.194;2022-08-19T11:25:10;96063.41;;;20.80;79.11
69411;BME280;56604;48.652;9.194;2022-08-19T11:27:40;96058.28;;;20.66;79.04
69411;BME280;56604;48.652;9.194;2022-08-19T11:30:11;96059.34;;;20.74;78.87
69411;BME280;56604;48.652;9.194;2022-08-19T11:32:37;96070.38;;;20.55;79.44
69411;BME280;56604;48.652;9.194;2022-08-19T11:35:03;96069.94;;;20.35;81.01
69411;BME280;56604;48.652;9.194;2022-08-19T11:37:28;96067.09;;;20.32;80.81
69411;BME280;56604;48.652;9.194;2022-08-19T11:39:54;96070.72;;;20.36;80.91
69411;BME280;56604;48.652;9.194;2022-08-19T11:42:19;96076.69;;;20.33;81.10
69411;BME280;56604;48.652;9.194;2022-08-19T11:45:03;96069.59;;;20.45;80.77
69411;BME280;56604;48.652;9.194;2022-08-19T11:47:29;96079.81;;;20.52;80.55
69411;BME280;56604;48.652;9.194;2022-08-19T11:49:55;96069.75;;;20.49;80.83
69411;BME280;56604;48.652;9.194;2022-08-19T11:52:21;96062.06;;;20.65;80.83
69411;BME280;56604;48.652;9.194;2022-08-19T11:54:46;96063.59;;;20.75;81.53
69411;BME280;56604;48.652;9.194;2022-08-19T11:57:12;96052.41;;;20.90;80.38
69411;BME280;56604;48.652;9.194;2022-08-19T11:59:37;96055.34;;;20.97;80.15
69411;BME280;56604;48.652;9.194;2022-08-19T12:02:02;96061.16;;;20.99;79.60
69411;BME280;56604;48.652;9.194;2022-08-19T12:04:28;96063.97;;;20.12;80.49
69411;BME280;56604;48.652;9.194;2022-08-19T12:06:53;96061.91;;;20.44;81.34
69411;BME280;56604;48.652;9.194;2022-08-19T12:09:19;96065.44;;;20.92;79.45
69411;BME280;56604;48.652;9.194;2022-08-19T12:11:47;96071.00;;;21.16;78.60
69411;BME280;56604;48.652;9.194;2022-08-19T12:14:13;96066.81;;;21.06;78.96
69411;BME280;56604;48.652;9.194;2022-08-19T12:16:39;96071.34;;;21.06;77.54
69411;BME280;56604;48.652;9.194;2022-08-19T12:19:06;96065.97;;;20.67;79.24
69411;BME280;56604;48.652;9.194;2022-08-19T12:21:34;96074.16;;;20.62;80.45
69411;BME280;56604;48.652;9.194;2022-08-19T12:24:01;96068.97;;;20.49;81.74
69411;BME280;56604;48.652;9.194;2022-08-19T12:26:28;96069.13;;;20.00;83.95
69411;BME280;56604;48.652;9.194;2022-08-19T12:28:55;96069.44;;;19.72;85.06
69411;BME280;56604;48.652;9.194;2022-08-19T12:31:20;96075.03;;;19.62;85.26
69411;BME280;56604;48.652;9.194;2022-08-19T12:33:46;96068.75;;;19.58;85.41
69411;BME280;56604;48.652;9.194;2022-08-19T12:36:14;96073.63;;;19.56;85.78
69411;BME280;56604;48.652;9.194;2022-08-19T12:38:41;96073.13;;;19.54;86.31
69411;BME280;56604;48.652;9.194;2022-08-19T12:41:10;96066.66;;;19.38;87.19
69411;BME280;56604;48.652;9.194;2022-08-19T12:43:36;96068.38;;;19.33;87.72
69411;BME280;56604;48.652;9.194;2022-08-19T12:46:04;96071.97;;;19.29;88.09
69411;BME280;56604;48.652;9.194;2022-08-19T12:48:33;96067.25;;;19.26;87.96
69411;BME280;56604;48.652;9.194;2022-08-19T12:50:58;96065.84;;;19.28;88.77
69411;BME280;56604;48.652;9.194;2022-08-19T12:53:24;96068.03;;;19.26;88.31
69411;BME280;56604;48.652;9.194;2022-08-19T12:55:57;96075.22;;;19.17;88.86
69411;BME280;56604;48.652;9.194;2022-08-19T12:58:23;96072.28;;;19.27;88.48
69411;BME280;56604;48.652;9.194;2022-08-19T13:00:48;96078.25;;;19.33;88.35
69411;BME280;56604;48.652;9.194;2022-08-19T13:03:14;96083.44;;;19.38;88.71
69411;BME280;56604;48.652;9.194;2022-08-19T13:05:40;96083.28;;;19.43;88.14
69411;BME280;56604;48.652;9.194;2022-08-19T13:08:05;96084.38;;;19.33;89.26
69411;BME280;56604;48.652;9.194;2022-08-19T13:10:33;96085.94;;;19.35;89.06